Bayboro, North Carolina
Current Conditions -  °F | °C
As of 5:54 AM on Saturday 20 Dec 2014 (Local Time) from KEWN Reporting Station
Clear Clear  
Wind Chill: 36°   Ceiling: Unl
Heat Index: 40°   Visibility: 10mi
Dew Point: 34°   Wind: 6mph
Humidity: 79%   Direction: 40°NE
Pressure: 30.26"   Gusts: NA
Location:  35.14°N, 76.77°W
Report Text: KEWN 201054Z 04005KT 10SM CLR 04/01 A3026 RMK AO2 SLP247 T00440011
Loading
Personal Weather Stations






























Interactive Weather Map New forecast layout! Learn more

10-Day Weather Forecast

Advertisements
Track Severe Weather on mobile